sensor_id;sensor_type;location;lat;lon;timestamp;temperature;humidity
19538;DHT22;9914;51.008;4.300;2023-04-30T00:02:20;11.00;99.90
19538;DHT22;9914;51.008;4.300;2023-04-30T00:04:46;11.30;99.90
19538;DHT22;9914;51.008;4.300;2023-04-30T00:07:12;11.30;99.90
19538;DHT22;9914;51.008;4.300;2023-04-30T00:09:39;11.20;99.90
19538;DHT22;9914;51.008;4.300;2023-04-30T00:12:04;11.10;99.90
19538;DHT22;9914;51.008;4.300;2023-04-30T00:14:30;11.30;99.90
19538;DHT22;9914;51.008;4.300;2023-04-30T00:16:56;11.30;99.90
19538;DHT22;9914;51.008;4.300;2023-04-30T00:19:21;11.30;99.90
19538;DHT22;9914;51.008;4.300;2023-04-30T00:21:47;11.20;99.90
19538;DHT22;9914;51.008;4.300;2023-04-30T00:24:13;11.30;99.90
19538;DHT22;9914;51.008;4.300;2023-04-30T00:26:38;11.30;99.90
19538;DHT22;9914;51.008;4.300;2023-04-30T00:29:04;11.20;99.90
19538;DHT22;9914;51.008;4.300;2023-04-30T00:31:31;11.20;99.90
19538;DHT22;9914;51.008;4.300;2023-04-30T00:33:56;11.20;99.90
19538;DHT22;9914;51.008;4.300;2023-04-30T00:36:22;11.00;99.90
19538;DHT22;9914;51.008;4.300;2023-04-30T00:38:48;10.80;99.90
19538;DHT22;9914;51.008;4.300;2023-04-30T00:41:13;10.70;99.90
19538;DHT22;9914;51.008;4.300;2023-04-30T00:43:39;10.60;99.90
19538;DHT22;9914;51.008;4.300;2023-04-30T00:46:05;10.70;99.90
19538;DHT22;9914;51.008;4.300;2023-04-30T00:48:31;10.60;99.90
19538;DHT22;9914;51.008;4.300;2023-04-30T00:50:56;10.50;99.90
19538;DHT22;9914;51.008;4.300;2023-04-30T00:53:22;10.40;99.90
19538;DHT22;9914;51.008;4.300;2023-04-30T00:55:48;10.30;99.90
19538;DHT22;9914;51.008;4.300;2023-04-30T00:58:14;10.20;99.90
19538;DHT22;9914;51.008;4.300;2023-04-30T01:00:40;10.20;99.90
19538;DHT22;9914;51.008;4.300;2023-04-30T01:03:12;10.10;99.90
19538;DHT22;9914;51.008;4.300;2023-04-30T01:05:38;10.10;99.90
19538;DHT22;9914;51.008;4.300;2023-04-30T01:08:03;10.00;99.90
19538;DHT22;9914;51.008;4.300;2023-04-30T01:10:37;9.90;99.90
19538;DHT22;9914;51.008;4.300;2023-04-30T01:13:20;9.80;99.90
19538;DHT22;9914;51.008;4.300;2023-04-30T01:15:59;9.80;99.90
19538;DHT22;9914;51.008;4.300;2023-04-30T01:18:40;9.80;99.90
19538;DHT22;9914;51.008;4.300;2023-04-30T01:21:07;9.80;99.90
19538;DHT22;9914;51.008;4.300;2023-04-30T01:29:18;9.50;99.90
19538;DHT22;9914;51.008;4.300;2023-04-30T01:31:45;9.60;99.90
19538;DHT22;9914;51.008;4.300;2023-04-30T01:34:11;9.60;99.90
19538;DHT22;9914;51.008;4.300;2023-04-30T01:44:42;9.60;99.90
19538;DHT22;9914;51.008;4.300;2023-04-30T01:50:08;9.50;99.90
19538;DHT22;9914;51.008;4.300;2023-04-30T01:52:53;9.50;99.90
19538;DHT22;9914;51.008;4.300;2023-04-30T01:55:29;9.30;99.90
19538;DHT22;9914;51.008;4.300;2023-04-30T01:57:59;9.40;99.90
19538;DHT22;9914;51.008;4.300;2023-04-30T02:00:26;9.30;99.90
19538;DHT22;9914;51.008;4.300;2023-04-30T02:02:53;9.20;99.90
19538;DHT22;9914;51.008;4.300;2023-04-30T02:05:18;9.10;99.90
19538;DHT22;9914;51.008;4.300;2023-04-30T02:07:46;9.10;99.90
19538;DHT22;9914;51.008;4.300;2023-04-30T02:10:12;9.10;99.90
19538;DHT22;9914;51.008;4.300;2023-04-30T02:12:38;9.10;99.90
19538;DHT22;9914;51.008;4.300;2023-04-30T02:15:05;9.10;99.90
19538;DHT22;9914;51.008;4.300;2023-04-30T02:17:31;9.10;99.90
19538;DHT22;9914;51.008;4.300;2023-04-30T02:19:58;9.10;99.90
19538;DHT22;9914;51.008;4.300;2023-04-30T02:22:23;9.20;99.90
19538;DHT22;9914;51.008;4.300;2023-04-30T02:24:49;9.20;99.90
19538;DHT22;9914;51.008;4.300;2023-04-30T02:27:15;9.10;99.90
19538;DHT22;9914;51.008;4.300;2023-04-30T02:29:41;9.00;99.90
19538;DHT22;9914;51.008;4.300;2023-04-30T02:32:07;9.00;99.90
19538;DHT22;9914;51.008;4.300;2023-04-30T02:34:33;9.10;99.90
19538;DHT22;9914;51.008;4.300;2023-04-30T02:36:58;8.90;99.90
19538;DHT22;9914;51.008;4.300;2023-04-30T02:39:24;8.90;99.90
19538;DHT22;9914;51.008;4.300;2023-04-30T02:41:50;8.80;99.90
19538;DHT22;9914;51.008;4.300;2023-04-30T02:44:16;8.90;99.90
19538;DHT22;9914;51.008;4.300;2023-04-30T02:46:41;8.80;99.90
19538;DHT22;9914;51.008;4.300;2023-04-30T02:49:07;8.70;99.90
19538;DHT22;9914;51.008;4.300;2023-04-30T02:51:32;8.50;99.90
19538;DHT22;9914;51.008;4.300;2023-04-30T02:53:58;8.40;99.90
19538;DHT22;9914;51.008;4.300;2023-04-30T02:56:24;8.40;99.90
19538;DHT22;9914;51.008;4.300;2023-04-30T02:58:49;8.50;99.90
19538;DHT22;9914;51.008;4.300;2023-04-30T03:01:15;8.50;99.90
19538;DHT22;9914;51.008;4.300;2023-04-30T03:03:40;8.60;99.90
19538;DHT22;9914;51.008;4.300;2023-04-30T03:06:06;8.60;99.90
19538;DHT22;9914;51.008;4.300;2023-04-30T03:08:32;8.60;99.90
19538;DHT22;9914;51.008;4.300;2023-04-30T03:10:57;8.60;99.90
19538;DHT22;9914;51.008;4.300;2023-04-30T03:13:23;8.50;99.90
19538;DHT22;9914;51.008;4.300;2023-04-30T03:15:56;8.50;99.90
19538;DHT22;9914;51.008;4.300;2023-04-30T03:18:23;8.30;99.90
19538;DHT22;9914;51.008;4.300;2023-04-30T03:20:49;8.60;99.90
19538;DHT22;9914;51.008;4.300;2023-04-30T03:23:14;8.80;99.90
19538;DHT22;9914;51.008;4.300;2023-04-30T03:25:40;8.80;99.90
19538;DHT22;9914;51.008;4.300;2023-04-30T03:28:05;8.60;99.90
19538;DHT22;9914;51.008;4.300;2023-04-30T03:30:31;8.40;99.90
19538;DHT22;9914;51.008;4.300;2023-04-30T03:32:57;8.30;99.90
19538;DHT22;9914;51.008;4.300;2023-04-30T03:35:22;8.10;99.90
19538;DHT22;9914;51.008;4.300;2023-04-30T03:37:48;8.10;99.90
19538;DHT22;9914;51.008;4.300;2023-04-30T03:40:14;8.10;99.90
19538;DHT22;9914;51.008;4.300;2023-04-30T03:42:39;8.10;99.90
19538;DHT22;9914;51.008;4.300;2023-04-30T03:45:05;8.10;99.90
19538;DHT22;9914;51.008;4.300;2023-04-30T03:47:31;8.30;99.90
19538;DHT22;9914;51.008;4.300;2023-04-30T03:49:57;8.30;99.90
19538;DHT22;9914;51.008;4.300;2023-04-30T03:52:23;8.40;99.90
19538;DHT22;9914;51.008;4.300;2023-04-30T03:54:48;8.40;99.90
19538;DHT22;9914;51.008;4.300;2023-04-30T03:57:14;8.40;99.90
19538;DHT22;9914;51.008;4.300;2023-04-30T03:59:40;8.30;99.90
19538;DHT22;9914;51.008;4.300;2023-04-30T04:02:06;8.40;99.90
19538;DHT22;9914;51.008;4.300;2023-04-30T04:04:32;8.30;99.90
19538;DHT22;9914;51.008;4.300;2023-04-30T04:06:58;8.30;99.90
19538;DHT22;9914;51.008;4.300;2023-04-30T04:09:24;8.20;99.90
19538;DHT22;9914;51.008;4.300;2023-04-30T04:11:49;8.10;99.90
19538;DHT22;9914;51.008;4.300;2023-04-30T04:14:15;8.10;99.90
19538;DHT22;9914;51.008;4.300;2023-04-30T04:16:41;8.20;99.90
19538;DHT22;9914;51.008;4.300;2023-04-30T04:19:07;8.20;99.90
19538;DHT22;9914;51.008;4.300;2023-04-30T04:21:32;8.30;99.90
19538;DHT22;9914;51.008;4.300;2023-04-30T04:23:58;8.20;99.90
19538;DHT22;9914;51.008;4.300;2023-04-30T04:26:24;8.10;99.90
19538;DHT22;9914;51.008;4.300;2023-04-30T04:28:50;8.10;99.90
19538;DHT22;9914;51.008;4.300;2023-04-30T04:31:16;8.40;99.90
19538;DHT22;9914;51.008;4.300;2023-04-30T04:33:43;8.30;99.90
19538;DHT22;9914;51.008;4.300;2023-04-30T04:36:09;8.30;99.90
19538;DHT22;9914;51.008;4.300;2023-04-30T04:38:34;8.20;99.90
19538;DHT22;9914;51.008;4.300;2023-04-30T04:41:00;8.20;99.90
19538;DHT22;9914;51.008;4.300;2023-04-30T04:43:26;8.20;99.90
19538;DHT22;9914;51.008;4.300;2023-04-30T04:45:51;8.20;99.90
19538;DHT22;9914;51.008;4.300;2023-04-30T04:48:17;8.20;99.90
19538;DHT22;9914;51.008;4.300;2023-04-30T04:50:43;8.20;99.90
19538;DHT22;9914;51.008;4.300;2023-04-30T04:53:08;8.20;99.90
19538;DHT22;9914;51.008;4.300;2023-04-30T04:55:34;8.30;99.90
19538;DHT22;9914;51.008;4.300;2023-04-30T04:58:00;8.30;99.90
19538;DHT22;9914;51.008;4.300;2023-04-30T05:00:26;8.40;99.90
19538;DHT22;9914;51.008;4.300;2023-04-30T05:02:52;8.40;99.90
19538;DHT22;9914;51.008;4.300;2023-04-30T05:05:17;8.60;99.90
19538;DHT22;9914;51.008;4.300;2023-04-30T05:07:43;8.60;99.90
19538;DHT22;9914;51.008;4.300;2023-04-30T05:10:09;8.60;99.90
19538;DHT22;9914;51.008;4.300;2023-04-30T05:12:34;8.50;99.90
19538;DHT22;9914;51.008;4.300;2023-04-30T05:15:00;8.60;99.90
19538;DHT22;9914;51.008;4.300;2023-04-30T05:17:26;8.80;99.90
19538;DHT22;9914;51.008;4.300;2023-04-30T05:19:52;9.10;99.90
19538;DHT22;9914;51.008;4.300;2023-04-30T05:22:17;9.20;99.90
19538;DHT22;9914;51.008;4.300;2023-04-30T05:24:43;9.10;99.90
19538;DHT22;9914;51.008;4.300;2023-04-30T05:27:09;9.30;99.90
19538;DHT22;9914;51.008;4.300;2023-04-30T05:29:34;9.30;99.90
19538;DHT22;9914;51.008;4.300;2023-04-30T05:32:00;9.40;99.90
19538;DHT22;9914;51.008;4.300;2023-04-30T05:34:26;9.40;99.90
19538;DHT22;9914;51.008;4.300;2023-04-30T05:36:52;9.40;99.90
19538;DHT22;9914;51.008;4.300;2023-04-30T05:39:17;9.50;99.90
19538;DHT22;9914;51.008;4.300;2023-04-30T05:41:43;9.70;99.90
19538;DHT22;9914;51.008;4.300;2023-04-30T05:44:09;9.80;99.90
19538;DHT22;9914;51.008;4.300;2023-04-30T05:46:35;9.80;99.90
19538;DHT22;9914;51.008;4.300;2023-04-30T05:49:01;9.70;99.90
19538;DHT22;9914;51.008;4.300;2023-04-30T05:51:27;9.80;99.90
19538;DHT22;9914;51.008;4.300;2023-04-30T05:53:53;9.90;99.90
19538;DHT22;9914;51.008;4.300;2023-04-30T05:56:19;10.00;99.90
19538;DHT22;9914;51.008;4.300;2023-04-30T05:58:45;10.00;99.90
19538;DHT22;9914;51.008;4.300;2023-04-30T06:01:11;10.20;99.90
19538;DHT22;9914;51.008;4.300;2023-04-30T06:03:37;10.30;99.90
19538;DHT22;9914;51.008;4.300;2023-04-30T06:06:03;10.40;99.90
19538;DHT22;9914;51.008;4.300;2023-04-30T06:08:29;10.40;99.90
19538;DHT22;9914;51.008;4.300;2023-04-30T06:10:55;10.40;99.90
19538;DHT22;9914;51.008;4.300;2023-04-30T06:13:21;10.50;99.90
19538;DHT22;9914;51.008;4.300;2023-04-30T06:15:47;10.60;99.90
19538;DHT22;9914;51.008;4.300;2023-04-30T06:18:13;10.70;99.90
19538;DHT22;9914;51.008;4.300;2023-04-30T06:20:39;10.80;99.90
19538;DHT22;9914;51.008;4.300;2023-04-30T06:23:04;10.80;99.90
19538;DHT22;9914;51.008;4.300;2023-04-30T06:25:30;10.90;99.90
19538;DHT22;9914;51.008;4.300;2023-04-30T06:27:56;11.00;99.90
19538;DHT22;9914;51.008;4.300;2023-04-30T06:30:22;11.10;99.90
19538;DHT22;9914;51.008;4.300;2023-04-30T06:32:48;11.20;99.90
19538;DHT22;9914;51.008;4.300;2023-04-30T06:35:13;11.30;99.90
19538;DHT22;9914;51.008;4.300;2023-04-30T06:37:39;11.40;99.90
19538;DHT22;9914;51.008;4.300;2023-04-30T06:40:06;11.60;99.90
19538;DHT22;9914;51.008;4.300;2023-04-30T06:42:32;11.80;99.90
19538;DHT22;9914;51.008;4.300;2023-04-30T06:45:01;11.80;99.90
19538;DHT22;9914;51.008;4.300;2023-04-30T06:47:27;11.90;99.90
19538;DHT22;9914;51.008;4.300;2023-04-30T06:49:53;12.00;99.90
19538;DHT22;9914;51.008;4.300;2023-04-30T06:52:19;12.00;99.90
19538;DHT22;9914;51.008;4.300;2023-04-30T06:54:44;12.10;99.90
19538;DHT22;9914;51.008;4.300;2023-04-30T06:57:10;12.20;99.90
19538;DHT22;9914;51.008;4.300;2023-04-30T06:59:36;12.30;99.90
19538;DHT22;9914;51.008;4.300;2023-04-30T07:02:02;12.20;99.90
19538;DHT22;9914;51.008;4.300;2023-04-30T07:04:28;12.50;99.90
19538;DHT22;9914;51.008;4.300;2023-04-30T07:06:53;12.70;99.90
19538;DHT22;9914;51.008;4.300;2023-04-30T07:09:19;12.90;99.90
19538;DHT22;9914;51.008;4.300;2023-04-30T07:11:46;13.10;99.90
19538;DHT22;9914;51.008;4.300;2023-04-30T07:14:11;13.20;99.90
19538;DHT22;9914;51.008;4.300;2023-04-30T07:16:37;13.30;99.90
19538;DHT22;9914;51.008;4.300;2023-04-30T07:19:02;13.30;99.90
19538;DHT22;9914;51.008;4.300;2023-04-30T07:21:28;13.20;99.90
19538;DHT22;9914;51.008;4.300;2023-04-30T07:23:54;13.30;99.90
19538;DHT22;9914;51.008;4.300;2023-04-30T07:26:19;13.40;99.90
19538;DHT22;9914;51.008;4.300;2023-04-30T07:28:48;13.40;99.90
19538;DHT22;9914;51.008;4.300;2023-04-30T07:31:14;13.30;99.90
19538;DHT22;9914;51.008;4.300;2023-04-30T07:33:39;13.50;99.90
19538;DHT22;9914;51.008;4.300;2023-04-30T07:36:05;13.60;99.90
19538;DHT22;9914;51.008;4.300;2023-04-30T07:38:32;13.70;99.90
19538;DHT22;9914;51.008;4.300;2023-04-30T07:40:57;13.80;99.90
19538;DHT22;9914;51.008;4.300;2023-04-30T07:43:23;14.00;99.90
19538;DHT22;9914;51.008;4.300;2023-04-30T07:45:49;14.10;99.90
19538;DHT22;9914;51.008;4.300;2023-04-30T07:48:15;14.20;99.90
19538;DHT22;9914;51.008;4.300;2023-04-30T07:50:41;14.30;99.90
19538;DHT22;9914;51.008;4.300;2023-04-30T07:53:07;14.40;99.90
19538;DHT22;9914;51.008;4.300;2023-04-30T07:55:34;14.60;99.90
19538;DHT22;9914;51.008;4.300;2023-04-30T07:57:59;14.70;99.90
19538;DHT22;9914;51.008;4.300;2023-04-30T08:00:26;14.90;99.90
19538;DHT22;9914;51.008;4.300;2023-04-30T08:02:54;15.10;99.90
19538;DHT22;9914;51.008;4.300;2023-04-30T08:05:20;15.20;99.90
19538;DHT22;9914;51.008;4.300;2023-04-30T08:07:45;15.30;99.90
19538;DHT22;9914;51.008;4.300;2023-04-30T08:10:11;15.30;99.90
19538;DHT22;9914;51.008;4.300;2023-04-30T08:12:37;15.50;99.90
19538;DHT22;9914;51.008;4.300;2023-04-30T08:15:04;15.70;99.90
19538;DHT22;9914;51.008;4.300;2023-04-30T08:17:33;15.70;99.90
19538;DHT22;9914;51.008;4.300;2023-04-30T08:20:00;15.90;99.90
19538;DHT22;9914;51.008;4.300;2023-04-30T08:22:25;15.80;99.90
19538;DHT22;9914;51.008;4.300;2023-04-30T08:24:51;15.90;99.90
19538;DHT22;9914;51.008;4.300;2023-04-30T08:27:17;16.10;99.90
19538;DHT22;9914;51.008;4.300;2023-04-30T08:29:43;16.20;99.90
19538;DHT22;9914;51.008;4.300;2023-04-30T08:32:08;16.10;99.90
19538;DHT22;9914;51.008;4.300;2023-04-30T08:34:34;16.40;99.90
19538;DHT22;9914;51.008;4.300;2023-04-30T08:37:00;16.40;99.90
19538;DHT22;9914;51.008;4.300;2023-04-30T08:39:26;16.50;99.90
19538;DHT22;9914;51.008;4.300;2023-04-30T08:41:55;16.60;99.90
19538;DHT22;9914;51.008;4.300;2023-04-30T08:44:21;16.70;99.90
19538;DHT22;9914;51.008;4.300;2023-04-30T08:46:56;16.80;99.90
19538;DHT22;9914;51.008;4.300;2023-04-30T08:49:23;16.80;99.90
19538;DHT22;9914;51.008;4.300;2023-04-30T08:51:50;17.00;99.90
19538;DHT22;9914;51.008;4.300;2023-04-30T08:54:17;17.10;99.90
19538;DHT22;9914;51.008;4.300;2023-04-30T08:56:44;17.30;99.90
19538;DHT22;9914;51.008;4.300;2023-04-30T08:59:12;17.30;99.90
19538;DHT22;9914;51.008;4.300;2023-04-30T09:01:37;17.40;99.90
19538;DHT22;9914;51.008;4.300;2023-04-30T09:04:04;17.50;99.90
19538;DHT22;9914;51.008;4.300;2023-04-30T09:06:30;17.60;99.90
19538;DHT22;9914;51.008;4.300;2023-04-30T09:08:55;17.50;99.90
19538;DHT22;9914;51.008;4.300;2023-04-30T09:13:56;16.90;99.90
19538;DHT22;9914;51.008;4.300;2023-04-30T09:16:22;17.20;99.90
19538;DHT22;9914;51.008;4.300;2023-04-30T09:18:48;17.50;99.90
19538;DHT22;9914;51.008;4.300;2023-04-30T09:21:15;17.70;99.90
19538;DHT22;9914;51.008;4.300;2023-04-30T09:23:55;18.00;99.90
19538;DHT22;9914;51.008;4.300;2023-04-30T09:26:25;18.00;99.90
19538;DHT22;9914;51.008;4.300;2023-04-30T09:28:56;18.30;99.90
19538;DHT22;9914;51.008;4.300;2023-04-30T09:31:23;18.60;99.90
19538;DHT22;9914;51.008;4.300;2023-04-30T09:33:52;18.70;99.90
19538;DHT22;9914;51.008;4.300;2023-04-30T09:36:19;18.40;99.90
19538;DHT22;9914;51.008;4.300;2023-04-30T09:38:45;18.40;99.90
19538;DHT22;9914;51.008;4.300;2023-04-30T09:41:40;18.60;99.90
19538;DHT22;9914;51.008;4.300;2023-04-30T09:44:06;18.50;99.90
19538;DHT22;9914;51.008;4.300;2023-04-30T09:46:33;18.60;99.90
19538;DHT22;9914;51.008;4.300;2023-04-30T09:49:04;18.50;99.90
19538;DHT22;9914;51.008;4.300;2023-04-30T09:51:30;18.50;99.90
19538;DHT22;9914;51.008;4.300;2023-04-30T09:53:56;18.10;99.90
19538;DHT22;9914;51.008;4.300;2023-04-30T09:56:25;17.60;99.90
19538;DHT22;9914;51.008;4.300;2023-04-30T09:58:55;18.00;99.90
19538;DHT22;9914;51.008;4.300;2023-04-30T10:01:25;18.30;99.90
19538;DHT22;9914;51.008;4.300;2023-04-30T10:03:54;18.70;99.90
19538;DHT22;9914;51.008;4.300;2023-04-30T10:06:21;18.90;99.90
19538;DHT22;9914;51.008;4.300;2023-04-30T10:08:55;19.10;99.90
19538;DHT22;9914;51.008;4.300;2023-04-30T10:11:26;19.00;99.90
19538;DHT22;9914;51.008;4.300;2023-04-30T10:14:11;19.20;99.90
19538;DHT22;9914;51.008;4.300;2023-04-30T10:16:51;19.60;99.90
19538;DHT22;9914;51.008;4.300;2023-04-30T10:19:23;19.40;99.90
19538;DHT22;9914;51.008;4.300;2023-04-30T10:21:49;19.00;99.90
19538;DHT22;9914;51.008;4.300;2023-04-30T10:24:17;19.20;99.90
19538;DHT22;9914;51.008;4.300;2023-04-30T10:26:45;19.50;99.90
19538;DHT22;9914;51.008;4.300;2023-04-30T10:29:15;19.10;99.90
19538;DHT22;9914;51.008;4.300;2023-04-30T10:31:44;19.30;99.90
19538;DHT22;9914;51.008;4.300;2023-04-30T10:34:21;19.20;99.90
19538;DHT22;9914;51.008;4.300;2023-04-30T10:36:50;19.40;99.90
19538;DHT22;9914;51.008;4.300;2023-04-30T10:39:22;19.40;99.90
19538;DHT22;9914;51.008;4.300;2023-04-30T10:42:02;19.60;99.90
19538;DHT22;9914;51.008;4.300;2023-04-30T10:44:32;19.40;99.90
19538;DHT22;9914;51.008;4.300;2023-04-30T10:46:59;19.40;99.90
19538;DHT22;9914;51.008;4.300;2023-04-30T10:49:26;19.30;99.90
19538;DHT22;9914;51.008;4.300;2023-04-30T10:51:52;19.40;99.90
19538;DHT22;9914;51.008;4.300;2023-04-30T10:54:25;19.40;99.90
19538;DHT22;9914;51.008;4.300;2023-04-30T10:56:53;19.80;99.90
19538;DHT22;9914;51.008;4.300;2023-04-30T10:59:21;20.00;99.90
19538;DHT22;9914;51.008;4.300;2023-04-30T11:02:00;20.10;99.90
19538;DHT22;9914;51.008;4.300;2023-04-30T11:04:26;20.10;99.90
19538;DHT22;9914;51.008;4.300;2023-04-30T11:09:42;20.30;99.90
19538;DHT22;9914;51.008;4.300;2023-04-30T11:12:21;20.40;99.90
19538;DHT22;9914;51.008;4.300;2023-04-30T11:15:14;20.00;99.90
19538;DHT22;9914;51.008;4.300;2023-04-30T11:17:39;20.00;99.90
19538;DHT22;9914;51.008;4.300;2023-04-30T11:20:05;20.30;99.90
19538;DHT22;9914;51.008;4.300;2023-04-30T11:22:31;20.00;99.90
19538;DHT22;9914;51.008;4.300;2023-04-30T11:25:10;20.20;99.90
19538;DHT22;9914;51.008;4.300;2023-04-30T11:27:44;20.10;99.90
19538;DHT22;9914;51.008;4.300;2023-04-30T11:30:10;20.10;99.90
19538;DHT22;9914;51.008;4.300;2023-04-30T11:32:38;20.10;99.90
19538;DHT22;9914;51.008;4.300;2023-04-30T11:35:05;20.30;99.90
19538;DHT22;9914;51.008;4.300;2023-04-30T11:37:41;20.50;99.90
19538;DHT22;9914;51.008;4.300;2023-04-30T11:40:11;20.80;99.90
19538;DHT22;9914;51.008;4.300;2023-04-30T11:42:40;21.20;99.90
19538;DHT22;9914;51.008;4.300;2023-04-30T11:47:44;20.80;99.90
19538;DHT22;9914;51.008;4.300;2023-04-30T11:50:14;20.90;99.90
19538;DHT22;9914;51.008;4.300;2023-04-30T11:52:41;21.00;99.90
19538;DHT22;9914;51.008;4.300;2023-04-30T11:55:18;20.90;99.90
19538;DHT22;9914;51.008;4.300;2023-04-30T11:57:45;21.10;99.90
19538;DHT22;9914;51.008;4.300;2023-04-30T12:00:12;21.00;99.90
19538;DHT22;9914;51.008;4.300;2023-04-30T12:02:39;21.40;99.90
19538;DHT22;9914;51.008;4.300;2023-04-30T12:05:15;21.40;99.90
19538;DHT22;9914;51.008;4.300;2023-04-30T12:07:54;21.30;99.90
19538;DHT22;9914;51.008;4.300;2023-04-30T12:10:20;21.60;99.90
19538;DHT22;9914;51.008;4.300;2023-04-30T12:12:47;21.80;99.90
19538;DHT22;9914;51.008;4.300;2023-04-30T12:15:18;21.60;99.90
19538;DHT22;9914;51.008;4.300;2023-04-30T12:17:45;21.60;99.90
19538;DHT22;9914;51.008;4.300;2023-04-30T12:20:12;21.40;99.90
19538;DHT22;9914;51.008;4.300;2023-04-30T12:22:40;21.40;99.90
19538;DHT22;9914;51.008;4.300;2023-04-30T12:25:14;21.50;99.90
19538;DHT22;9914;51.008;4.300;2023-04-30T12:28:06;21.60;99.90
19538;DHT22;9914;51.008;4.300;2023-04-30T12:30:32;21.50;99.90
19538;DHT22;9914;51.008;4.300;2023-04-30T12:32:59;21.50;99.90
19538;DHT22;9914;51.008;4.300;2023-04-30T12:35:27;21.20;99.90
19538;DHT22;9914;51.008;4.300;2023-04-30T12:38:01;21.20;99.90
19538;DHT22;9914;51.008;4.300;2023-04-30T12:40:28;21.20;99.90
19538;DHT22;9914;51.008;4.300;2023-04-30T12:43:01;21.10;99.90
19538;DHT22;9914;51.008;4.300;2023-04-30T12:45:43;21.40;99.90
19538;DHT22;9914;51.008;4.300;2023-04-30T12:48:10;21.10;99.90
19538;DHT22;9914;51.008;4.300;2023-04-30T12:50:35;21.20;99.90
19538;DHT22;9914;51.008;4.300;2023-04-30T12:53:03;21.00;99.90
19538;DHT22;9914;51.008;4.300;2023-04-30T12:55:29;21.40;99.90
19538;DHT22;9914;51.008;4.300;2023-04-30T12:58:08;21.40;99.90
19538;DHT22;9914;51.008;4.300;2023-04-30T13:00:48;21.60;99.90
19538;DHT22;9914;51.008;4.300;2023-04-30T13:03:15;21.80;99.90
19538;DHT22;9914;51.008;4.300;2023-04-30T13:05:41;21.90;99.90
19538;DHT22;9914;51.008;4.300;2023-04-30T13:08:11;21.80;99.90
19538;DHT22;9914;51.008;4.300;2023-04-30T13:10:37;21.60;99.90
19538;DHT22;9914;51.008;4.300;2023-04-30T13:13:03;21.50;99.90
19538;DHT22;9914;51.008;4.300;2023-04-30T13:15:28;21.40;99.90
19538;DHT22;9914;51.008;4.300;2023-04-30T13:17:54;21.20;99.90
19538;DHT22;9914;51.008;4.300;2023-04-30T13:20:20;21.10;99.90
19538;DHT22;9914;51.008;4.300;2023-04-30T13:22:46;21.10;99.90
19538;DHT22;9914;51.008;4.300;2023-04-30T13:25:11;21.40;99.90
19538;DHT22;9914;51.008;4.300;2023-04-30T13:27:37;21.70;99.90
19538;DHT22;9914;51.008;4.300;2023-04-30T13:30:04;22.00;99.90
19538;DHT22;9914;51.008;4.300;2023-04-30T13:32:30;22.10;99.90
19538;DHT22;9914;51.008;4.300;2023-04-30T13:34:55;22.40;99.90
19538;DHT22;9914;51.008;4.300;2023-04-30T13:37:23;22.50;99.90
19538;DHT22;9914;51.008;4.300;2023-04-30T13:39:48;22.50;99.90
19538;DHT22;9914;51.008;4.300;2023-04-30T13:42:14;22.70;99.90
19538;DHT22;9914;51.008;4.300;2023-04-30T13:44:40;23.00;99.90
19538;DHT22;9914;51.008;4.300;2023-04-30T13:47:06;23.30;99.90
19538;DHT22;9914;51.008;4.300;2023-04-30T13:49:32;23.00;99.90
19538;DHT22;9914;51.008;4.300;2023-04-30T13:52:00;22.80;99.90
19538;DHT22;9914;51.008;4.300;2023-04-30T13:54:26;23.00;99.90
19538;DHT22;9914;51.008;4.300;2023-04-30T13:56:52;23.10;99.90
19538;DHT22;9914;51.008;4.300;2023-04-30T13:59:19;22.30;99.90
19538;DHT22;9914;51.008;4.300;2023-04-30T14:01:44;22.20;99.90
19538;DHT22;9914;51.008;4.300;2023-04-30T14:04:10;22.20;99.90
19538;DHT22;9914;51.008;4.300;2023-04-30T14:06:36;22.30;99.90
19538;DHT22;9914;51.008;4.300;2023-04-30T14:09:03;22.40;99.90
19538;DHT22;9914;51.008;4.300;2023-04-30T14:11:28;22.50;99.90
19538;DHT22;9914;51.008;4.300;2023-04-30T14:13:54;22.60;99.90
19538;DHT22;9914;51.008;4.300;2023-04-30T14:16:20;22.30;99.90
19538;DHT22;9914;51.008;4.300;2023-04-30T14:18:46;22.40;99.90
19538;DHT22;9914;51.008;4.300;2023-04-30T14:21:12;22.60;99.90
19538;DHT22;9914;51.008;4.300;2023-04-30T14:23:38;22.80;99.90
19538;DHT22;9914;51.008;4.300;2023-04-30T14:26:05;22.90;99.90
19538;DHT22;9914;51.008;4.300;2023-04-30T14:28:31;23.10;99.90
19538;DHT22;9914;51.008;4.300;2023-04-30T14:30:57;23.50;99.90
19538;DHT22;9914;51.008;4.300;2023-04-30T14:33:23;23.40;99.90
19538;DHT22;9914;51.008;4.300;2023-04-30T14:35:48;23.80;99.90
19538;DHT22;9914;51.008;4.300;2023-04-30T14:38:14;24.20;99.90
19538;DHT22;9914;51.008;4.300;2023-04-30T14:40:40;24.80;99.90
19538;DHT22;9914;51.008;4.300;2023-04-30T14:43:06;24.30;99.90
19538;DHT22;9914;51.008;4.300;2023-04-30T14:45:32;24.50;99.90
19538;DHT22;9914;51.008;4.300;2023-04-30T14:47:59;24.60;99.90
19538;DHT22;9914;51.008;4.300;2023-04-30T14:50:26;24.70;99.90
19538;DHT22;9914;51.008;4.300;2023-04-30T14:52:51;24.90;99.10
19538;DHT22;9914;51.008;4.300;2023-04-30T14:55:17;25.00;99.00
19538;DHT22;9914;51.008;4.300;2023-04-30T14:57:43;24.80;99.50
19538;DHT22;9914;51.008;4.300;2023-04-30T15:00:09;24.70;99.30
19538;DHT22;9914;51.008;4.300;2023-04-30T15:02:35;24.50;99.30
19538;DHT22;9914;51.008;4.300;2023-04-30T15:05:03;24.20;99.50
19538;DHT22;9914;51.008;4.300;2023-04-30T15:07:29;24.30;99.60
19538;DHT22;9914;51.008;4.300;2023-04-30T15:09:55;24.00;99.60
19538;DHT22;9914;51.008;4.300;2023-04-30T15:12:20;24.80;99.90
19538;DHT22;9914;51.008;4.300;2023-04-30T15:14:47;25.30;98.20
19538;DHT22;9914;51.008;4.300;2023-04-30T15:17:13;26.50;97.10
19538;DHT22;9914;51.008;4.300;2023-04-30T15:19:39;27.80;95.40
19538;DHT22;9914;51.008;4.300;2023-04-30T15:22:07;27.30;94.80
19538;DHT22;9914;51.008;4.300;2023-04-30T15:24:33;27.80;94.80
19538;DHT22;9914;51.008;4.300;2023-04-30T15:27:00;26.90;94.70
19538;DHT22;9914;51.008;4.300;2023-04-30T15:29:25;25.90;95.00
19538;DHT22;9914;51.008;4.300;2023-04-30T15:31:51;25.30;95.30
19538;DHT22;9914;51.008;4.300;2023-04-30T15:34:19;24.90;95.70
19538;DHT22;9914;51.008;4.300;2023-04-30T15:36:45;26.00;95.80
19538;DHT22;9914;51.008;4.300;2023-04-30T15:39:12;27.70;94.30
19538;DHT22;9914;51.008;4.300;2023-04-30T15:41:38;28.60;93.80
19538;DHT22;9914;51.008;4.300;2023-04-30T15:44:03;28.60;92.40
19538;DHT22;9914;51.008;4.300;2023-04-30T15:46:29;28.10;92.90
19538;DHT22;9914;51.008;4.300;2023-04-30T15:48:55;28.20;92.60
19538;DHT22;9914;51.008;4.300;2023-04-30T15:51:21;28.10;92.00
19538;DHT22;9914;51.008;4.300;2023-04-30T15:53:47;28.70;91.70
19538;DHT22;9914;51.008;4.300;2023-04-30T15:56:13;29.60;91.30
19538;DHT22;9914;51.008;4.300;2023-04-30T15:58:38;29.90;90.40
19538;DHT22;9914;51.008;4.300;2023-04-30T16:01:04;29.20;90.20
19538;DHT22;9914;51.008;4.300;2023-04-30T16:03:31;28.20;90.70
19538;DHT22;9914;51.008;4.300;2023-04-30T16:05:57;27.20;91.30
19538;DHT22;9914;51.008;4.300;2023-04-30T16:08:24;26.70;91.80
19538;DHT22;9914;51.008;4.300;2023-04-30T16:10:49;25.80;92.60
19538;DHT22;9914;51.008;4.300;2023-04-30T16:13:15;25.40;93.80
19538;DHT22;9914;51.008;4.300;2023-04-30T16:15:41;24.80;93.80